Scheldegracht — PFAQ — position and weather

sailwx.info

Track history (hours):
 
Tides and Currents Weather Stations Pressure Air Temp Water Temp Dewpoint Dewpoint Depression Visibility Wind Speed Wind Dir Waves Ship Positions

Scheldegracht

Last reported at 2019-Aug-17 00:00 UTC. Time now 2019-Aug-18 13:49 UTC.
Position N 45°59' W 002°50'.

Length 173 m; beam 26 m.

Type: Cargo ship. MMSI: 244730000.

Date/timePositionNaut miles runAvg speedWind from/ knotsBaromVisibWave heightAir tempDewpointWater temp
2019-Aug-17 00:00N 45°59' W 002°50'1116.7
2019-Aug-16 23:19N 46°01' W 002°34'1317.0
2019-Aug-16 22:32N 46°03' W 002°15'117.7
2019-Aug-16 22:30N 46°04' W 002°14'917.6
2019-Aug-16 22:00N 46°05' W 002°02'917.7
2019-Aug-16 21:30N 46°07' W 001°49'917.7
2019-Aug-16 21:00N 46°08' W 001°37'1019.1
2019-Aug-16 20:30N 46°07' W 001°23'612.1
2019-Aug-16 20:00N 46°09' W 001°15'1 1.3
2019-Aug-16 19:28N 46°09' W 001°14'0 0.0
2019-Aug-16 18:58N 46°09' W 001°14'0 0.0
2019-Aug-16 18:28N 46°09' W 001°14'0 0.0
2019-Aug-16 17:58N 46°09' W 001°14'0 0.0
2019-Aug-16 17:28N 46°09' W 001°14'0 0.0
2019-Aug-16 16:58N 46°09' W 001°14'0 0.0
2019-Aug-16 16:28N 46°09' W 001°14'0 0.0
2019-Aug-16 15:58N 46°09' W 001°14'0 0.0
2019-Aug-16 15:28N 46°09' W 001°14'0 0.0
2019-Aug-16 14:58N 46°09' W 001°14'0 0.0
2019-Aug-16 14:28N 46°09' W 001°14'0 0.0
2019-Aug-16 13:58N 46°09' W 001°14'0 0.0
2019-Aug-16 13:28N 46°09' W 001°14'0 0.0
2019-Aug-16 12:58N 46°09' W 001°14'0 0.0
2019-Aug-16 12:28N 46°09' W 001°14'0 0.0
2019-Aug-16 11:58N 46°09' W 001°14'0 0.0
2019-Aug-16 11:31N 46°09' W 001°14'0 0.0
2019-Aug-16 11:01N 46°09' W 001°14'0 0.0
2019-Aug-16 10:31N 46°09' W 001°14'0 0.0
2019-Aug-16 10:00N 46°09' W 001°14'0 0.0
2019-Aug-16 09:30N 46°09' W 001°14'0 0.0
2019-Aug-16 09:00N 46°09' W 001°14'0 0.0
2019-Aug-16 08:30N 46°09' W 001°14'0 0.0
2019-Aug-16 08:00N 46°09' W 001°14'0 0.0
2019-Aug-16 07:30N 46°09' W 001°14'0 0.0
2019-Aug-16 07:00N 46°09' W 001°14'0 0.0
2019-Aug-16 06:30N 46°09' W 001°14'0 0.0
2019-Aug-16 06:00N 46°09' W 001°14'0 0.0
2019-Aug-16 05:30N 46°09' W 001°14'0 0.0
2019-Aug-16 05:00N 46°09' W 001°14'0 0.3
2019-Aug-16 04:30N 46°09' W 001°14'3 5.8
2019-Aug-16 04:00N 46°07' W 001°16'612.5
2019-Aug-16 03:30N 46°06' W 001°25'815.1
2019-Aug-16 03:00N 46°07' W 001°35'1615.3
2019-Aug-16 01:58N 46°15' W 001°56'2916.2
2019-Aug-16 00:10N 46°33' W 002°29'916.6
2019-Aug-15 23:37N 46°38' W 002°40'816.4
2019-Aug-15 23:09N 46°43' W 002°49'1516.5
2019-Aug-15 22:15N 46°51' W 003°07'416.4
2019-Aug-15 21:58N 46°54' W 003°12'816.4
2019-Aug-15 21:30N 46°59' W 003°21'816.2
2019-Aug-15 21:00N 47°04' W 003°30'816.3
2019-Aug-15 20:30N 47°09' W 003°40'1416.0
2019-Aug-15 19:37N 47°17' W 003°57'615.9
2019-Aug-15 19:14N 47°21' W 004°04'1016.3
2019-Aug-15 18:38N 47°27' W 004°15'216.1
2019-Aug-15 18:30N 47°28' W 004°18'816.0
2019-Aug-15 17:59N 47°33' W 004°27'816.3
2019-Aug-15 17:30N 47°38' W 004°37'816.1
2019-Aug-15 17:00N 47°42' W 004°46'916.9
2019-Aug-15 16:30N 47°48' W 004°56'918.2
2019-Aug-15 16:00N 47°53' W 005°07'918.2
2019-Aug-15 15:30N 47°59' W 005°17'917.4
2019-Aug-15 15:00N 48°06' W 005°25'917.3
2019-Aug-15 14:30N 48°13' W 005°33'817.1
2019-Aug-15 14:00N 48°20' W 005°40'5812.1
2019-Aug-15 09:13N 49°01' W 004°37'6116.2
2019-Aug-15 05:27N 49°42' W 003°27'715.5
2019-Aug-15 05:00N 49°46' W 003°19'815.2
2019-Aug-15 04:30N 49°51' W 003°10'815.5
2019-Aug-15 04:00N 49°56' W 003°01'815.2
2019-Aug-15 03:29N 49°59' W 002°49'715.5
2019-Aug-15 03:00N 50°01' W 002°38'5216.1
2019-Aug-14 23:47N 50°22' W 001°24'416.4
2019-Aug-14 23:30N 50°25' W 001°19'917.3
2019-Aug-14 22:59N 50°31' W 001°08'916.6
2019-Aug-14 22:27N 50°37' W 000°57'510.7
2019-Aug-14 22:01N 50°41' W 000°57'713.6
2019-Aug-14 21:30N 50°45' W 001°06'917.1
2019-Aug-14 21:00N 50°47' W 001°19'4 8.4
2019-Aug-14 20:30N 50°51' W 001°21'4 8.2
2019-Aug-14 20:00N 50°54' W 001°25'0 0.7
2019-Aug-14 19:30N 50°54' W 001°26'0 0.0
2019-Aug-14 18:58N 50°54' W 001°26'0 0.0
2019-Aug-14 18:28N 50°54' W 001°26'0 0.0
2019-Aug-14 17:58N 50°54' W 001°26'0 0.0
2019-Aug-14 17:28N 50°54' W 001°26'0 0.0
2019-Aug-14 16:58N 50°54' W 001°26'0 0.0
2019-Aug-14 16:28N 50°54' W 001°26'0 0.0
2019-Aug-14 15:58N 50°54' W 001°26'0 0.0
2019-Aug-14 15:10N 50°54' W 001°26'0 0.0
2019-Aug-14 14:46N 50°54' W 001°26'0 0.0
2019-Aug-14 14:28N 50°54' W 001°26'0 0.0
2019-Aug-14 13:58N 50°54' W 001°26'0 0.0
2019-Aug-14 13:25N 50°54' W 001°26'0 0.0
2019-Aug-14 12:58N 50°54' W 001°26'0 0.0
2019-Aug-14 12:22N 50°54' W 001°26'0 0.0
2019-Aug-14 11:58N 50°54' W 001°26'0 0.0
2019-Aug-14 11:25N 50°54' W 001°26'0 0.0
2019-Aug-14 10:55N 50°54' W 001°26'0 0.0
2019-Aug-14 10:28N 50°54' W 001°26'0 0.0
2019-Aug-14 09:58N 50°54' W 001°26'0 0.0
2019-Aug-14 09:28N 50°54' W 001°26'0 0.0
2019-Aug-14 08:52N 50°54' W 001°26'0 0.0
2019-Aug-14 08:28N 50°54' W 001°26'0 0.0
2019-Aug-14 07:49N 50°54' W 001°26'0 0.0
2019-Aug-14 07:28N 50°54' W 001°26'1 1.6
2019-Aug-14 06:59N 50°54' W 001°25'4 8.8
2019-Aug-14 06:30N 50°51' W 001°20'5 9.7
2019-Aug-14 06:00N 50°46' W 001°17'815.8
2019-Aug-14 05:30N 50°44' W 001°05'713.4
2019-Aug-14 05:00N 50°40' W 000°56'510.9
2019-Aug-14 04:30N 50°37' W 000°49'714.5
2019-Aug-14 04:00N 50°36' W 000°38'5512.9
2019-Aug-13 23:47N 50°44' E 000°47'414.0
2019-Aug-13 23:30N 50°46' E 000°52'713.6
2019-Aug-13 23:00N 50°50' E 001°00'713.4
2019-Aug-13 22:30N 50°55' E 001°08'813.6
2019-Aug-13 21:53N 51°00' E 001°19'513.4
2019-Aug-13 21:30N 51°03' E 001°25'611.2
2019-Aug-13 21:00N 51°06' E 001°32'713.7
2019-Aug-13 20:31N 51°10' E 001°41'713.7
2019-Aug-13 20:00N 51°16' E 001°48'713.7
2019-Aug-13 19:30N 51°22' E 001°53'713.7
2019-Aug-13 19:00N 51°27' E 001°59'713.6
2019-Aug-13 18:31N 51°33' E 002°06'713.7
2019-Aug-13 18:00N 51°38' E 002°13'713.8
2019-Aug-13 17:30N 51°43' E 002°20'4913.8
2019-Aug-13 13:56N 52°22' E 003°11'714.0
2019-Aug-13 13:26N 52°28' E 003°16'613.5
2019-Aug-13 12:58N 52°32' E 003°23'613.1
2019-Aug-13 12:30N 52°37' E 003°29'4313.3
2019-Aug-13 09:14N 53°08' E 004°20'34015.0
2019-Aug-12 10:37N 57°48' E 010°03'416.0
2019-Aug-12 10:23N 57°48' E 010°10'615.2
2019-Aug-12 10:00N 57°48' E 010°21'714.8
2019-Aug-12 09:30N 57°48' E 010°35'815.3
2019-Aug-12 09:00N 57°47' E 010°49'714.6
2019-Aug-12 08:30N 57°41' E 010°39'0 0.8
2019-Aug-12 07:58N 57°41' E 010°39'0 0.2
2019-Aug-12 07:28N 57°41' E 010°39'0 0.0
2019-Aug-12 06:58N 57°41' E 010°39'0 0.0
2019-Aug-12 06:28N 57°41' E 010°39'0 0.0
2019-Aug-12 05:58N 57°41' E 010°39'0 0.0
2019-Aug-12 05:25N 57°41' E 010°39'0 0.0
2019-Aug-12 04:55N 57°41' E 010°39'0 0.0
2019-Aug-12 04:28N 57°41' E 010°39'0 0.0
2019-Aug-12 03:58N 57°41' E 010°39'0 0.0
2019-Aug-12 03:28N 57°41' E 010°39'0 0.0
2019-Aug-12 02:58N 57°41' E 010°39'0 0.0
2019-Aug-12 02:28N 57°41' E 010°39'0 0.0
2019-Aug-12 01:58N 57°41' E 010°39'0 0.0
2019-Aug-12 01:28N 57°41' E 010°39'0 0.0
2019-Aug-12 00:58N 57°41' E 010°39'0 0.1
2019-Aug-12 00:28N 57°41' E 010°39'0 0.0
2019-Aug-11 23:58N 57°41' E 010°39'0 0.0
2019-Aug-11 23:29N 57°41' E 010°39'1 1.3
2019-Aug-11 23:00N 57°41' E 010°40'3 6.6
2019-Aug-11 22:31N 57°40' E 010°46'815.7
2019-Aug-11 22:00N 57°40' E 011°01'917.8
2019-Aug-11 21:30N 57°34' E 011°13'918.0
2019-Aug-11 21:00N 57°28' E 011°26'918.7
2019-Aug-11 20:30N 57°19' E 011°33'918.7
2019-Aug-11 20:00N 57°11' E 011°38'918.7
2019-Aug-11 19:30N 57°02' E 011°44'10816.1
2019-Aug-11 12:47N 55°16' E 011°05'412.8
2019-Aug-11 12:30N 55°12' E 011°06'816.3
2019-Aug-11 12:01N 55°05' E 010°59'816.5
2019-Aug-11 11:31N 54°57' E 010°56'917.3
2019-Aug-11 11:01N 54°49' E 010°50'917.1
2019-Aug-11 10:31N 54°41' E 010°47'816.6
2019-Aug-11 10:01N 54°37' E 010°59'816.7
2019-Aug-11 09:31N 54°36' E 011°13'917.3
2019-Aug-11 09:01N 54°32' E 011°27'816.6
2019-Aug-11 08:31N 54°28' E 011°40'816.0
2019-Aug-11 07:59N 54°26' E 011°54'915.6
2019-Aug-11 07:26N 54°26' E 012°09'615.3
2019-Aug-11 07:01N 54°32' E 012°14'815.4
2019-Aug-11 06:31N 54°38' E 012°22'8816.2
2019-Aug-11 01:05N 55°25' E 014°32'117.7
2019-Aug-11 01:00N 55°26' E 014°34'917.5
2019-Aug-11 00:30N 55°30' E 014°47'917.3
2019-Aug-10 23:58N 55°36' E 015°00'817.6
2019-Aug-10 23:30N 55°40' E 015°13'917.7
2019-Aug-10 23:01N 55°44' E 015°26'917.8
2019-Aug-10 22:31N 55°49' E 015°40'918.1
2019-Aug-10 22:01N 55°53' E 015°54'918.0
2019-Aug-10 21:31N 55°57' E 016°08'917.8
2019-Aug-10 21:01N 56°02' E 016°22'917.7
2019-Aug-10 20:31N 56°06' E 016°36'917.2
2019-Aug-10 20:00N 56°11' E 016°48'917.6
2019-Aug-10 19:31N 56°19' E 016°54'917.4
2019-Aug-10 19:01N 56°28' E 016°59'917.2
2019-Aug-10 18:31N 56°36' E 017°05'16917.6
2019-Aug-10 08:54N 59°05' E 019°33'718.5
2019-Aug-10 08:31N 59°11' E 019°41'3614.4
2019-Aug-10 05:59N 59°47' E 019°37'817.6
2019-Aug-10 05:31N 59°54' E 019°27'917.5
2019-Aug-10 05:00N 60°01' E 019°16'917.8
2019-Aug-10 04:31N 60°07' E 019°04'816.7
2019-Aug-10 04:01N 60°15' E 018°60'917.8
2019-Aug-10 03:30N 60°24' E 018°60'1817.9
2019-Aug-10 02:30N 60°42' E 018°60'1118.0
2019-Aug-10 01:55N 60°53' E 018°60'13217.9
2019-Aug-09 18:32N 63°05' E 019°13'117.8
2019-Aug-09 18:30N 63°06' E 019°13'  
2019-Aug-07 13:44N 61°16' E 020°57'314.8
2019-Aug-07 13:30N 61°13' E 021°00'714.4
2019-Aug-07 13:00N 61°07' E 021°10'511.0
2019-Aug-07 12:30N 61°06' E 021°21'3 5.3
2019-Aug-07 12:00N 61°08' E 021°26'0 0.0
2019-Aug-07 11:30N 61°08' E 021°26'0 0.0
2019-Aug-07 10:57N 61°08' E 021°26'0 0.0
2019-Aug-07 10:27N 61°08' E 021°26'0 0.0
2019-Aug-07 09:57N 61°08' E 021°26'0 0.0
2019-Aug-07 09:30N 61°08' E 021°26'0 0.0
2019-Aug-07 09:00N 61°08' E 021°26'0 0.0
2019-Aug-07 08:30N 61°08' E 021°26'0 0.0
2019-Aug-07 08:00N 61°08' E 021°26'0 0.0
2019-Aug-07 07:30N 61°08' E 021°26'0 0.0
2019-Aug-07 07:00N 61°08' E 021°26'0 0.0
2019-Aug-07 06:30N 61°08' E 021°26'0 0.0
2019-Aug-07 06:00N 61°08' E 021°26'0 0.0
2019-Aug-07 05:30N 61°08' E 021°26'0 0.0
2019-Aug-07 05:00N 61°08' E 021°26'0 0.0
2019-Aug-07 04:30N 61°08' E 021°26'0 0.0
2019-Aug-07 04:00N 61°08' E 021°26'0 0.0
2019-Aug-07 03:30N 61°08' E 021°26'0 0.0
2019-Aug-07 03:00N 61°08' E 021°26'0 0.0
2019-Aug-07 02:30N 61°08' E 021°26'0 0.0
2019-Aug-07 02:00N 61°08' E 021°26'0 0.0
2019-Aug-07 01:30N 61°08' E 021°26'0 0.0
2019-Aug-07 01:00N 61°08' E 021°26'0 0.0
2019-Aug-07 00:30N 61°08' E 021°26'  
Track history (hours):
 
Tides and Currents Weather Stations Pressure Air Temp Water Temp Dewpoint Dewpoint Depression Visibility Wind Speed Wind Dir Waves Ship Positions

Scheldegracht

Last reported at 2019-Aug-17 00:00 UTC. Time now 2019-Aug-18 13:49 UTC.
Position N 45°59' W 002°50'.

Length 173 m; beam 26 m.

Type: Cargo ship. MMSI: 244730000.

Date/timePositionNaut miles runAvg speedWind from/ knotsBaromVisibWave heightAir tempDewpointWater temp
2019-Aug-17 00:00N 45°59' W 002°50'1116.7
2019-Aug-16 23:19N 46°01' W 002°34'1317.0
2019-Aug-16 22:32N 46°03' W 002°15'117.7
2019-Aug-16 22:30N 46°04' W 002°14'917.6
2019-Aug-16 22:00N 46°05' W 002°02'917.7
2019-Aug-16 21:30N 46°07' W 001°49'917.7
2019-Aug-16 21:00N 46°08' W 001°37'1019.1
2019-Aug-16 20:30N 46°07' W 001°23'612.1
2019-Aug-16 20:00N 46°09' W 001°15'1 1.3
2019-Aug-16 19:28N 46°09' W 001°14'0 0.0
2019-Aug-16 18:58N 46°09' W 001°14'0 0.0
2019-Aug-16 18:28N 46°09' W 001°14'0 0.0
2019-Aug-16 17:58N 46°09' W 001°14'0 0.0
2019-Aug-16 17:28N 46°09' W 001°14'0 0.0
2019-Aug-16 16:58N 46°09' W 001°14'0 0.0
2019-Aug-16 16:28N 46°09' W 001°14'0 0.0
2019-Aug-16 15:58N 46°09' W 001°14'0 0.0
2019-Aug-16 15:28N 46°09' W 001°14'0 0.0
2019-Aug-16 14:58N 46°09' W 001°14'0 0.0
2019-Aug-16 14:28N 46°09' W 001°14'0 0.0
2019-Aug-16 13:58N 46°09' W 001°14'0 0.0
2019-Aug-16 13:28N 46°09' W 001°14'0 0.0
2019-Aug-16 12:58N 46°09' W 001°14'0 0.0
2019-Aug-16 12:28N 46°09' W 001°14'0 0.0
2019-Aug-16 11:58N 46°09' W 001°14'0 0.0
2019-Aug-16 11:31N 46°09' W 001°14'0 0.0
2019-Aug-16 11:01N 46°09' W 001°14'0 0.0
2019-Aug-16 10:31N 46°09' W 001°14'0 0.0
2019-Aug-16 10:00N 46°09' W 001°14'0 0.0
2019-Aug-16 09:30N 46°09' W 001°14'0 0.0
2019-Aug-16 09:00N 46°09' W 001°14'0 0.0
2019-Aug-16 08:30N 46°09' W 001°14'0 0.0
2019-Aug-16 08:00N 46°09' W 001°14'0 0.0
2019-Aug-16 07:30N 46°09' W 001°14'0 0.0
2019-Aug-16 07:00N 46°09' W 001°14'0 0.0
2019-Aug-16 06:30N 46°09' W 001°14'0 0.0
2019-Aug-16 06:00N 46°09' W 001°14'0 0.0
2019-Aug-16 05:30N 46°09' W 001°14'0 0.0
2019-Aug-16 05:00N 46°09' W 001°14'0 0.3
2019-Aug-16 04:30N 46°09' W 001°14'3 5.8
2019-Aug-16 04:00N 46°07' W 001°16'612.5
2019-Aug-16 03:30N 46°06' W 001°25'815.1
2019-Aug-16 03:00N 46°07' W 001°35'1615.3
2019-Aug-16 01:58N 46°15' W 001°56'2916.2
2019-Aug-16 00:10N 46°33' W 002°29'916.6
2019-Aug-15 23:37N 46°38' W 002°40'816.4
2019-Aug-15 23:09N 46°43' W 002°49'1516.5
2019-Aug-15 22:15N 46°51' W 003°07'416.4
2019-Aug-15 21:58N 46°54' W 003°12'816.4
2019-Aug-15 21:30N 46°59' W 003°21'816.2
2019-Aug-15 21:00N 47°04' W 003°30'816.3
2019-Aug-15 20:30N 47°09' W 003°40'1416.0
2019-Aug-15 19:37N 47°17' W 003°57'615.9
2019-Aug-15 19:14N 47°21' W 004°04'1016.3
2019-Aug-15 18:38N 47°27' W 004°15'216.1
2019-Aug-15 18:30N 47°28' W 004°18'816.0
2019-Aug-15 17:59N 47°33' W 004°27'816.3
2019-Aug-15 17:30N 47°38' W 004°37'816.1
2019-Aug-15 17:00N 47°42' W 004°46'916.9
2019-Aug-15 16:30N 47°48' W 004°56'918.2
2019-Aug-15 16:00N 47°53' W 005°07'918.2
2019-Aug-15 15:30N 47°59' W 005°17'917.4
2019-Aug-15 15:00N 48°06' W 005°25'917.3
2019-Aug-15 14:30N 48°13' W 005°33'817.1
2019-Aug-15 14:00N 48°20' W 005°40'5812.1
2019-Aug-15 09:13N 49°01' W 004°37'6116.2
2019-Aug-15 05:27N 49°42' W 003°27'715.5
2019-Aug-15 05:00N 49°46' W 003°19'815.2
2019-Aug-15 04:30N 49°51' W 003°10'815.5
2019-Aug-15 04:00N 49°56' W 003°01'815.2
2019-Aug-15 03:29N 49°59' W 002°49'715.5
2019-Aug-15 03:00N 50°01' W 002°38'5216.1
2019-Aug-14 23:47N 50°22' W 001°24'416.4
2019-Aug-14 23:30N 50°25' W 001°19'917.3
2019-Aug-14 22:59N 50°31' W 001°08'916.6
2019-Aug-14 22:27N 50°37' W 000°57'510.7
2019-Aug-14 22:01N 50°41' W 000°57'713.6
2019-Aug-14 21:30N 50°45' W 001°06'917.1
2019-Aug-14 21:00N 50°47' W 001°19'4 8.4
2019-Aug-14 20:30N 50°51' W 001°21'4 8.2
2019-Aug-14 20:00N 50°54' W 001°25'0 0.7
2019-Aug-14 19:30N 50°54' W 001°26'0 0.0
2019-Aug-14 18:58N 50°54' W 001°26'0 0.0
2019-Aug-14 18:28N 50°54' W 001°26'0 0.0
2019-Aug-14 17:58N 50°54' W 001°26'0 0.0
2019-Aug-14 17:28N 50°54' W 001°26'0 0.0
2019-Aug-14 16:58N 50°54' W 001°26'0 0.0
2019-Aug-14 16:28N 50°54' W 001°26'0 0.0
2019-Aug-14 15:58N 50°54' W 001°26'0 0.0
2019-Aug-14 15:10N 50°54' W 001°26'0 0.0
2019-Aug-14 14:46N 50°54' W 001°26'0 0.0
2019-Aug-14 14:28N 50°54' W 001°26'0 0.0
2019-Aug-14 13:58N 50°54' W 001°26'0 0.0
2019-Aug-14 13:25N 50°54' W 001°26'0 0.0
2019-Aug-14 12:58N 50°54' W 001°26'0 0.0
2019-Aug-14 12:22N 50°54' W 001°26'0 0.0
2019-Aug-14 11:58N 50°54' W 001°26'0 0.0
2019-Aug-14 11:25N 50°54' W 001°26'0 0.0
2019-Aug-14 10:55N 50°54' W 001°26'0 0.0
2019-Aug-14 10:28N 50°54' W 001°26'0 0.0
2019-Aug-14 09:58N 50°54' W 001°26'0 0.0
2019-Aug-14 09:28N 50°54' W 001°26'0 0.0
2019-Aug-14 08:52N 50°54' W 001°26'0 0.0
2019-Aug-14 08:28N 50°54' W 001°26'0 0.0
2019-Aug-14 07:49N 50°54' W 001°26'0 0.0
2019-Aug-14 07:28N 50°54' W 001°26'1 1.6
2019-Aug-14 06:59N 50°54' W 001°25'4 8.8
2019-Aug-14 06:30N 50°51' W 001°20'5 9.7
2019-Aug-14 06:00N 50°46' W 001°17'815.8
2019-Aug-14 05:30N 50°44' W 001°05'713.4
2019-Aug-14 05:00N 50°40' W 000°56'510.9
2019-Aug-14 04:30N 50°37' W 000°49'714.5
2019-Aug-14 04:00N 50°36' W 000°38'5512.9
2019-Aug-13 23:47N 50°44' E 000°47'414.0
2019-Aug-13 23:30N 50°46' E 000°52'713.6
2019-Aug-13 23:00N 50°50' E 001°00'713.4
2019-Aug-13 22:30N 50°55' E 001°08'813.6
2019-Aug-13 21:53N 51°00' E 001°19'513.4
2019-Aug-13 21:30N 51°03' E 001°25'611.2
2019-Aug-13 21:00N 51°06' E 001°32'713.7
2019-Aug-13 20:31N 51°10' E 001°41'713.7
2019-Aug-13 20:00N 51°16' E 001°48'713.7
2019-Aug-13 19:30N 51°22' E 001°53'713.7
2019-Aug-13 19:00N 51°27' E 001°59'713.6
2019-Aug-13 18:31N 51°33' E 002°06'713.7
2019-Aug-13 18:00N 51°38' E 002°13'713.8
2019-Aug-13 17:30N 51°43' E 002°20'4913.8
2019-Aug-13 13:56N 52°22' E 003°11'714.0
2019-Aug-13 13:26N 52°28' E 003°16'613.5
2019-Aug-13 12:58N 52°32' E 003°23'613.1
2019-Aug-13 12:30N 52°37' E 003°29'4313.3
2019-Aug-13 09:14N 53°08' E 004°20'34015.0
2019-Aug-12 10:37N 57°48' E 010°03'416.0
2019-Aug-12 10:23N 57°48' E 010°10'615.2
2019-Aug-12 10:00N 57°48' E 010°21'714.8
2019-Aug-12 09:30N 57°48' E 010°35'815.3
2019-Aug-12 09:00N 57°47' E 010°49'714.6
2019-Aug-12 08:30N 57°41' E 010°39'0 0.8
2019-Aug-12 07:58N 57°41' E 010°39'0 0.2
2019-Aug-12 07:28N 57°41' E 010°39'0 0.0
2019-Aug-12 06:58N 57°41' E 010°39'0 0.0
2019-Aug-12 06:28N 57°41' E 010°39'0 0.0
2019-Aug-12 05:58N 57°41' E 010°39'0 0.0
2019-Aug-12 05:25N 57°41' E 010°39'0 0.0
2019-Aug-12 04:55N 57°41' E 010°39'0 0.0
2019-Aug-12 04:28N 57°41' E 010°39'0 0.0
2019-Aug-12 03:58N 57°41' E 010°39'0 0.0
2019-Aug-12 03:28N 57°41' E 010°39'0 0.0
2019-Aug-12 02:58N 57°41' E 010°39'0 0.0
2019-Aug-12 02:28N 57°41' E 010°39'0 0.0
2019-Aug-12 01:58N 57°41' E 010°39'0 0.0
2019-Aug-12 01:28N 57°41' E 010°39'0 0.0
2019-Aug-12 00:58N 57°41' E 010°39'0 0.1
2019-Aug-12 00:28N 57°41' E 010°39'0 0.0
2019-Aug-11 23:58N 57°41' E 010°39'0 0.0
2019-Aug-11 23:29N 57°41' E 010°39'1 1.3
2019-Aug-11 23:00N 57°41' E 010°40'3 6.6
2019-Aug-11 22:31N 57°40' E 010°46'815.7
2019-Aug-11 22:00N 57°40' E 011°01'917.8
2019-Aug-11 21:30N 57°34' E 011°13'918.0
2019-Aug-11 21:00N 57°28' E 011°26'918.7
2019-Aug-11 20:30N 57°19' E 011°33'918.7
2019-Aug-11 20:00N 57°11' E 011°38'918.7
2019-Aug-11 19:30N 57°02' E 011°44'10816.1
2019-Aug-11 12:47N 55°16' E 011°05'412.8
2019-Aug-11 12:30N 55°12' E 011°06'816.3
2019-Aug-11 12:01N 55°05' E 010°59'816.5
2019-Aug-11 11:31N 54°57' E 010°56'917.3
2019-Aug-11 11:01N 54°49' E 010°50'917.1
2019-Aug-11 10:31N 54°41' E 010°47'816.6
2019-Aug-11 10:01N 54°37' E 010°59'816.7
2019-Aug-11 09:31N 54°36' E 011°13'917.3
2019-Aug-11 09:01N 54°32' E 011°27'816.6
2019-Aug-11 08:31N 54°28' E 011°40'816.0
2019-Aug-11 07:59N 54°26' E 011°54'915.6
2019-Aug-11 07:26N 54°26' E 012°09'615.3
2019-Aug-11 07:01N 54°32' E 012°14'815.4
2019-Aug-11 06:31N 54°38' E 012°22'8816.2
2019-Aug-11 01:05N 55°25' E 014°32'117.7
2019-Aug-11 01:00N 55°26' E 014°34'917.5
2019-Aug-11 00:30N 55°30' E 014°47'917.3
2019-Aug-10 23:58N 55°36' E 015°00'817.6
2019-Aug-10 23:30N 55°40' E 015°13'917.7
2019-Aug-10 23:01N 55°44' E 015°26'917.8
2019-Aug-10 22:31N 55°49' E 015°40'918.1
2019-Aug-10 22:01N 55°53' E 015°54'918.0
2019-Aug-10 21:31N 55°57' E 016°08'917.8
2019-Aug-10 21:01N 56°02' E 016°22'917.7
2019-Aug-10 20:31N 56°06' E 016°36'917.2
2019-Aug-10 20:00N 56°11' E 016°48'917.6
2019-Aug-10 19:31N 56°19' E 016°54'917.4
2019-Aug-10 19:01N 56°28' E 016°59'917.2
2019-Aug-10 18:31N 56°36' E 017°05'16917.6
2019-Aug-10 08:54N 59°05' E 019°33'718.5
2019-Aug-10 08:31N 59°11' E 019°41'3614.4
2019-Aug-10 05:59N 59°47' E 019°37'817.6
2019-Aug-10 05:31N 59°54' E 019°27'917.5
2019-Aug-10 05:00N 60°01' E 019°16'917.8
2019-Aug-10 04:31N 60°07' E 019°04'816.7
2019-Aug-10 04:01N 60°15' E 018°60'917.8
2019-Aug-10 03:30N 60°24' E 018°60'1817.9
2019-Aug-10 02:30N 60°42' E 018°60'1118.0
2019-Aug-10 01:55N 60°53' E 018°60'13217.9
2019-Aug-09 18:32N 63°05' E 019°13'117.8
2019-Aug-09 18:30N 63°06' E 019°13'  
2019-Aug-07 13:44N 61°16' E 020°57'314.8
2019-Aug-07 13:30N 61°13' E 021°00'714.4
2019-Aug-07 13:00N 61°07' E 021°10'511.0
2019-Aug-07 12:30N 61°06' E 021°21'3 5.3
2019-Aug-07 12:00N 61°08' E 021°26'0 0.0
2019-Aug-07 11:30N 61°08' E 021°26'0 0.0
2019-Aug-07 10:57N 61°08' E 021°26'0 0.0
2019-Aug-07 10:27N 61°08' E 021°26'0 0.0
2019-Aug-07 09:57N 61°08' E 021°26'0 0.0
2019-Aug-07 09:30N 61°08' E 021°26'0 0.0
2019-Aug-07 09:00N 61°08' E 021°26'0 0.0
2019-Aug-07 08:30N 61°08' E 021°26'0 0.0
2019-Aug-07 08:00N 61°08' E 021°26'0 0.0
2019-Aug-07 07:30N 61°08' E 021°26'0 0.0
2019-Aug-07 07:00N 61°08' E 021°26'0 0.0
2019-Aug-07 06:30N 61°08' E 021°26'0 0.0
2019-Aug-07 06:00N 61°08' E 021°26'0 0.0
2019-Aug-07 05:30N 61°08' E 021°26'0 0.0
2019-Aug-07 05:00N 61°08' E 021°26'0 0.0
2019-Aug-07 04:30N 61°08' E 021°26'0 0.0
2019-Aug-07 04:00N 61°08' E 021°26'0 0.0
2019-Aug-07 03:30N 61°08' E 021°26'0 0.0
2019-Aug-07 03:00N 61°08' E 021°26'0 0.0
2019-Aug-07 02:30N 61°08' E 021°26'0 0.0
2019-Aug-07 02:00N 61°08' E 021°26'0 0.0
2019-Aug-07 01:30N 61°08' E 021°26'0 0.0
2019-Aug-07 01:00N 61°08' E 021°26'0 0.0
2019-Aug-07 00:30N 61°08' E 021°26'  

Dump ship's entire track history